sensor_id;sensor_type;location;lat;lon;timestamp;P1;durP1;ratioP1;P2;durP2;ratioP2
48040;SDS011;33815;48.386;11.738;2022-09-03T00:02:30;2.30;;;1.88;;
48040;SDS011;33815;48.386;11.738;2022-09-03T00:07:59;2.30;;;2.10;;
48040;SDS011;33815;48.386;11.738;2022-09-03T00:10:36;3.15;;;2.15;;
48040;SDS011;33815;48.386;11.738;2022-09-03T00:13:09;2.67;;;2.42;;
48040;SDS011;33815;48.386;11.738;2022-09-03T00:15:40;2.72;;;2.42;;
48040;SDS011;33815;48.386;11.738;2022-09-03T00:20:45;3.08;;;2.22;;
48040;SDS011;33815;48.386;11.738;2022-09-03T00:23:26;2.70;;;1.73;;
48040;SDS011;33815;48.386;11.738;2022-09-03T00:25:58;2.47;;;2.17;;
48040;SDS011;33815;48.386;11.738;2022-09-03T00:28:43;1.65;;;1.55;;
48040;SDS011;33815;48.386;11.738;2022-09-03T00:34:00;2.05;;;1.75;;
48040;SDS011;33815;48.386;11.738;2022-09-03T00:36:35;2.20;;;1.80;;
48040;SDS011;33815;48.386;11.738;2022-09-03T00:39:14;1.92;;;1.83;;
48040;SDS011;33815;48.386;11.738;2022-09-03T00:50:44;3.20;;;1.80;;
48040;SDS011;33815;48.386;11.738;2022-09-03T00:53:48;1.92;;;1.75;;
48040;SDS011;33815;48.386;11.738;2022-09-03T00:57:06;1.60;;;1.50;;
48040;SDS011;33815;48.386;11.738;2022-09-03T01:02:23;1.85;;;1.75;;
48040;SDS011;33815;48.386;11.738;2022-09-03T01:05:04;1.73;;;1.50;;
48040;SDS011;33815;48.386;11.738;2022-09-03T01:13:31;1.60;;;1.50;;
48040;SDS011;33815;48.386;11.738;2022-09-03T01:21:21;7.20;;;1.98;;
48040;SDS011;33815;48.386;11.738;2022-09-03T01:26:43;2.10;;;2.00;;
48040;SDS011;33815;48.386;11.738;2022-09-03T01:29:30;2.13;;;1.83;;
48040;SDS011;33815;48.386;11.738;2022-09-03T01:32:24;1.95;;;1.83;;
48040;SDS011;33815;48.386;11.738;2022-09-03T01:35:02;3.85;;;1.70;;
48040;SDS011;33815;48.386;11.738;2022-09-03T01:37:44;2.65;;;1.90;;
48040;SDS011;33815;48.386;11.738;2022-09-03T01:46:12;1.90;;;1.80;;
48040;SDS011;33815;48.386;11.738;2022-09-03T01:49:05;2.13;;;1.90;;
48040;SDS011;33815;48.386;11.738;2022-09-03T01:51:40;2.20;;;2.00;;
48040;SDS011;33815;48.386;11.738;2022-09-03T02:07:23;4.50;;;2.10;;
48040;SDS011;33815;48.386;11.738;2022-09-03T02:09:51;2.33;;;1.70;;
48040;SDS011;33815;48.386;11.738;2022-09-03T02:12:16;1.90;;;1.80;;
48040;SDS011;33815;48.386;11.738;2022-09-03T02:14:44;1.65;;;1.55;;
48040;SDS011;33815;48.386;11.738;2022-09-03T02:17:10;2.28;;;1.90;;
48040;SDS011;33815;48.386;11.738;2022-09-03T02:19:36;2.30;;;2.20;;
48040;SDS011;33815;48.386;11.738;2022-09-03T02:22:03;1.88;;;1.77;;
48040;SDS011;33815;48.386;11.738;2022-09-03T02:24:29;3.05;;;1.95;;
48040;SDS011;33815;48.386;11.738;2022-09-03T02:26:54;2.60;;;2.17;;
48040;SDS011;33815;48.386;11.738;2022-09-03T02:29:20;2.10;;;1.90;;
48040;SDS011;33815;48.386;11.738;2022-09-03T02:31:47;2.63;;;2.42;;
48040;SDS011;33815;48.386;11.738;2022-09-03T02:34:13;4.45;;;2.53;;
48040;SDS011;33815;48.386;11.738;2022-09-03T02:36:40;1.60;;;1.50;;
48040;SDS011;33815;48.386;11.738;2022-09-03T02:39:10;1.98;;;1.83;;
48040;SDS011;33815;48.386;11.738;2022-09-03T02:41:37;3.78;;;2.15;;
48040;SDS011;33815;48.386;11.738;2022-09-03T02:44:05;2.25;;;1.92;;
48040;SDS011;33815;48.386;11.738;2022-09-03T02:46:47;1.90;;;1.77;;
48040;SDS011;33815;48.386;11.738;2022-09-03T02:49:20;2.55;;;2.13;;
48040;SDS011;33815;48.386;11.738;2022-09-03T02:51:46;1.80;;;1.70;;
48040;SDS011;33815;48.386;11.738;2022-09-03T02:54:11;2.95;;;2.03;;
48040;SDS011;33815;48.386;11.738;2022-09-03T02:56:37;2.42;;;2.20;;
48040;SDS011;33815;48.386;11.738;2022-09-03T02:59:03;2.58;;;2.28;;
48040;SDS011;33815;48.386;11.738;2022-09-03T03:01:30;2.33;;;2.13;;
48040;SDS011;33815;48.386;11.738;2022-09-03T03:03:56;2.00;;;1.85;;
48040;SDS011;33815;48.386;11.738;2022-09-03T03:06:21;3.53;;;2.40;;
48040;SDS011;33815;48.386;11.738;2022-09-03T03:08:47;4.35;;;2.40;;
48040;SDS011;33815;48.386;11.738;2022-09-03T03:11:14;4.68;;;2.17;;
48040;SDS011;33815;48.386;11.738;2022-09-03T03:13:42;2.97;;;2.10;;
48040;SDS011;33815;48.386;11.738;2022-09-03T03:16:09;2.67;;;2.47;;
48040;SDS011;33815;48.386;11.738;2022-09-03T03:18:34;2.33;;;2.13;;
48040;SDS011;33815;48.386;11.738;2022-09-03T03:21:09;2.33;;;2.13;;
48040;SDS011;33815;48.386;11.738;2022-09-03T03:23:36;2.42;;;2.22;;
48040;SDS011;33815;48.386;11.738;2022-09-03T03:26:06;2.42;;;2.15;;
48040;SDS011;33815;48.386;11.738;2022-09-03T03:28:33;2.72;;;2.53;;
48040;SDS011;33815;48.386;11.738;2022-09-03T03:31:06;2.50;;;2.30;;
48040;SDS011;33815;48.386;11.738;2022-09-03T03:33:35;2.30;;;2.15;;
48040;SDS011;33815;48.386;11.738;2022-09-03T03:36:08;3.50;;;2.35;;
48040;SDS011;33815;48.386;11.738;2022-09-03T03:38:35;4.28;;;2.30;;
48040;SDS011;33815;48.386;11.738;2022-09-03T03:41:08;2.95;;;2.40;;
48040;SDS011;33815;48.386;11.738;2022-09-03T03:43:39;4.15;;;2.90;;
48040;SDS011;33815;48.386;11.738;2022-09-03T03:46:05;3.35;;;2.70;;
48040;SDS011;33815;48.386;11.738;2022-09-03T03:48:31;2.80;;;2.60;;
48040;SDS011;33815;48.386;11.738;2022-09-03T03:50:59;2.67;;;2.40;;
48040;SDS011;33815;48.386;11.738;2022-09-03T03:53:29;2.03;;;1.92;;
48040;SDS011;33815;48.386;11.738;2022-09-03T03:55:55;2.55;;;2.33;;
48040;SDS011;33815;48.386;11.738;2022-09-03T03:58:21;2.47;;;2.28;;
48040;SDS011;33815;48.386;11.738;2022-09-03T04:00:47;2.90;;;2.70;;
48040;SDS011;33815;48.386;11.738;2022-09-03T04:03:13;2.85;;;2.60;;
48040;SDS011;33815;48.386;11.738;2022-09-03T04:05:38;4.93;;;2.78;;
48040;SDS011;33815;48.386;11.738;2022-09-03T04:08:04;3.10;;;2.23;;
48040;SDS011;33815;48.386;11.738;2022-09-03T04:10:29;3.30;;;2.33;;
48040;SDS011;33815;48.386;11.738;2022-09-03T04:12:54;2.97;;;2.35;;
48040;SDS011;33815;48.386;11.738;2022-09-03T04:15:20;3.38;;;3.05;;
48040;SDS011;33815;48.386;11.738;2022-09-03T04:17:45;2.90;;;2.70;;
48040;SDS011;33815;48.386;11.738;2022-09-03T04:20:10;3.00;;;2.73;;
48040;SDS011;33815;48.386;11.738;2022-09-03T04:22:35;3.08;;;2.83;;
48040;SDS011;33815;48.386;11.738;2022-09-03T04:25:01;4.50;;;3.30;;
48040;SDS011;33815;48.386;11.738;2022-09-03T04:27:26;3.07;;;2.83;;
48040;SDS011;33815;48.386;11.738;2022-09-03T04:29:51;4.50;;;2.40;;
48040;SDS011;33815;48.386;11.738;2022-09-03T04:32:16;4.03;;;2.60;;
48040;SDS011;33815;48.386;11.738;2022-09-03T04:35:00;3.03;;;2.83;;
48040;SDS011;33815;48.386;11.738;2022-09-03T04:37:25;3.00;;;2.80;;
48040;SDS011;33815;48.386;11.738;2022-09-03T04:39:51;2.40;;;2.20;;
48040;SDS011;33815;48.386;11.738;2022-09-03T04:42:18;6.82;;;3.38;;
48040;SDS011;33815;48.386;11.738;2022-09-03T04:44:43;3.03;;;2.83;;
48040;SDS011;33815;48.386;11.738;2022-09-03T04:47:08;2.90;;;2.70;;
48040;SDS011;33815;48.386;11.738;2022-09-03T04:49:34;2.80;;;2.50;;
48040;SDS011;33815;48.386;11.738;2022-09-03T04:51:59;6.03;;;2.95;;
48040;SDS011;33815;48.386;11.738;2022-09-03T04:54:24;5.10;;;2.33;;
48040;SDS011;33815;48.386;11.738;2022-09-03T04:56:49;3.05;;;2.85;;
48040;SDS011;33815;48.386;11.738;2022-09-03T04:59:15;2.83;;;2.63;;
48040;SDS011;33815;48.386;11.738;2022-09-03T05:01:41;4.67;;;3.30;;
48040;SDS011;33815;48.386;11.738;2022-09-03T05:04:07;3.88;;;2.55;;
48040;SDS011;33815;48.386;11.738;2022-09-03T05:06:33;2.97;;;2.70;;
48040;SDS011;33815;48.386;11.738;2022-09-03T05:09:00;2.63;;;2.42;;
48040;SDS011;33815;48.386;11.738;2022-09-03T05:11:26;2.85;;;2.60;;
48040;SDS011;33815;48.386;11.738;2022-09-03T05:13:53;6.93;;;2.63;;
48040;SDS011;33815;48.386;11.738;2022-09-03T05:16:20;2.90;;;2.70;;
48040;SDS011;33815;48.386;11.738;2022-09-03T05:18:46;4.50;;;2.22;;
48040;SDS011;33815;48.386;11.738;2022-09-03T05:21:16;2.75;;;2.53;;
48040;SDS011;33815;48.386;11.738;2022-09-03T05:23:43;5.38;;;2.72;;
48040;SDS011;33815;48.386;11.738;2022-09-03T05:26:11;3.72;;;2.92;;
48040;SDS011;33815;48.386;11.738;2022-09-03T05:28:39;3.17;;;2.70;;
48040;SDS011;33815;48.386;11.738;2022-09-03T05:31:07;2.78;;;2.58;;
48040;SDS011;33815;48.386;11.738;2022-09-03T05:33:34;5.20;;;2.25;;
48040;SDS011;33815;48.386;11.738;2022-09-03T05:36:04;6.93;;;2.97;;
48040;SDS011;33815;48.386;11.738;2022-09-03T05:38:31;3.40;;;2.15;;
48040;SDS011;33815;48.386;11.738;2022-09-03T05:41:00;3.53;;;2.30;;
48040;SDS011;33815;48.386;11.738;2022-09-03T05:43:27;2.08;;;1.98;;
48040;SDS011;33815;48.386;11.738;2022-09-03T05:46:00;3.42;;;2.35;;
48040;SDS011;33815;48.386;11.738;2022-09-03T05:48:28;4.75;;;2.25;;
48040;SDS011;33815;48.386;11.738;2022-09-03T05:51:14;3.30;;;2.25;;
48040;SDS011;33815;48.386;11.738;2022-09-03T05:53:41;2.60;;;2.15;;
48040;SDS011;33815;48.386;11.738;2022-09-03T05:56:09;2.35;;;2.20;;
48040;SDS011;33815;48.386;11.738;2022-09-03T05:58:40;2.45;;;2.25;;
48040;SDS011;33815;48.386;11.738;2022-09-03T06:01:30;3.53;;;2.10;;
48040;SDS011;33815;48.386;11.738;2022-09-03T06:03:58;3.00;;;1.70;;
48040;SDS011;33815;48.386;11.738;2022-09-03T06:06:26;3.40;;;2.00;;
48040;SDS011;33815;48.386;11.738;2022-09-03T06:08:57;2.88;;;2.10;;
48040;SDS011;33815;48.386;11.738;2022-09-03T06:11:24;1.90;;;1.80;;
48040;SDS011;33815;48.386;11.738;2022-09-03T06:13:52;3.17;;;2.00;;
48040;SDS011;33815;48.386;11.738;2022-09-03T06:16:19;2.45;;;1.90;;
48040;SDS011;33815;48.386;11.738;2022-09-03T06:18:45;2.33;;;2.03;;
48040;SDS011;33815;48.386;11.738;2022-09-03T06:21:10;3.15;;;2.08;;
48040;SDS011;33815;48.386;11.738;2022-09-03T06:23:36;2.00;;;1.90;;
48040;SDS011;33815;48.386;11.738;2022-09-03T06:26:05;2.57;;;1.60;;
48040;SDS011;33815;48.386;11.738;2022-09-03T06:28:32;5.35;;;1.83;;
48040;SDS011;33815;48.386;11.738;2022-09-03T06:31:00;2.08;;;1.98;;
48040;SDS011;33815;48.386;11.738;2022-09-03T06:33:27;1.92;;;1.75;;
48040;SDS011;33815;48.386;11.738;2022-09-03T06:35:57;2.30;;;1.63;;
48040;SDS011;33815;48.386;11.738;2022-09-03T06:38:24;2.95;;;1.95;;
48040;SDS011;33815;48.386;11.738;2022-09-03T06:40:54;2.42;;;1.92;;
48040;SDS011;33815;48.386;11.738;2022-09-03T06:43:20;2.20;;;2.00;;
48040;SDS011;33815;48.386;11.738;2022-09-03T06:45:53;2.10;;;1.90;;
48040;SDS011;33815;48.386;11.738;2022-09-03T06:48:19;4.72;;;2.47;;
48040;SDS011;33815;48.386;11.738;2022-09-03T06:50:51;2.95;;;2.15;;
48040;SDS011;33815;48.386;11.738;2022-09-03T06:53:18;3.15;;;2.85;;
48040;SDS011;33815;48.386;11.738;2022-09-03T06:55:51;2.83;;;2.57;;
48040;SDS011;33815;48.386;11.738;2022-09-03T06:58:17;2.65;;;2.45;;
48040;SDS011;33815;48.386;11.738;2022-09-03T07:00:42;4.63;;;2.72;;
48040;SDS011;33815;48.386;11.738;2022-09-03T07:03:08;2.53;;;2.33;;
48040;SDS011;33815;48.386;11.738;2022-09-03T07:05:33;5.22;;;2.22;;
48040;SDS011;33815;48.386;11.738;2022-09-03T07:07:59;3.00;;;2.40;;
48040;SDS011;33815;48.386;11.738;2022-09-03T07:10:24;6.20;;;2.60;;
48040;SDS011;33815;48.386;11.738;2022-09-03T07:12:52;3.78;;;2.85;;
48040;SDS011;33815;48.386;11.738;2022-09-03T07:15:19;2.85;;;2.50;;
48040;SDS011;33815;48.386;11.738;2022-09-03T07:17:45;4.18;;;2.55;;
48040;SDS011;33815;48.386;11.738;2022-09-03T07:20:10;8.53;;;2.60;;
48040;SDS011;33815;48.386;11.738;2022-09-03T07:22:35;3.07;;;2.57;;
48040;SDS011;33815;48.386;11.738;2022-09-03T07:25:00;3.47;;;2.03;;
48040;SDS011;33815;48.386;11.738;2022-09-03T07:27:26;2.28;;;2.00;;
48040;SDS011;33815;48.386;11.738;2022-09-03T07:29:51;2.83;;;2.22;;
48040;SDS011;33815;48.386;11.738;2022-09-03T07:32:16;3.37;;;2.30;;
48040;SDS011;33815;48.386;11.738;2022-09-03T07:34:42;2.00;;;1.90;;
48040;SDS011;33815;48.386;11.738;2022-09-03T07:37:07;3.03;;;2.45;;
48040;SDS011;33815;48.386;11.738;2022-09-03T07:39:33;3.05;;;2.10;;
48040;SDS011;33815;48.386;11.738;2022-09-03T07:41:58;2.07;;;1.87;;
48040;SDS011;33815;48.386;11.738;2022-09-03T07:44:24;1.85;;;1.75;;
48040;SDS011;33815;48.386;11.738;2022-09-03T07:46:50;2.13;;;1.92;;
48040;SDS011;33815;48.386;11.738;2022-09-03T07:49:15;2.08;;;1.83;;
48040;SDS011;33815;48.386;11.738;2022-09-03T07:51:41;4.13;;;2.45;;
48040;SDS011;33815;48.386;11.738;2022-09-03T07:54:07;3.03;;;2.72;;
48040;SDS011;33815;48.386;11.738;2022-09-03T07:56:35;2.25;;;2.10;;
48040;SDS011;33815;48.386;11.738;2022-09-03T07:59:01;4.60;;;2.55;;
48040;SDS011;33815;48.386;11.738;2022-09-03T08:01:28;2.08;;;1.77;;
48040;SDS011;33815;48.386;11.738;2022-09-03T08:03:55;4.35;;;2.25;;
48040;SDS011;33815;48.386;11.738;2022-09-03T08:06:22;3.42;;;2.28;;
48040;SDS011;33815;48.386;11.738;2022-09-03T08:08:53;2.58;;;2.05;;
48040;SDS011;33815;48.386;11.738;2022-09-03T08:11:21;4.95;;;2.40;;
48040;SDS011;33815;48.386;11.738;2022-09-03T08:13:47;2.65;;;2.42;;
48040;SDS011;33815;48.386;11.738;2022-09-03T08:16:18;2.20;;;2.10;;
48040;SDS011;33815;48.386;11.738;2022-09-03T08:18:44;3.15;;;2.55;;
48040;SDS011;33815;48.386;11.738;2022-09-03T08:21:12;6.40;;;2.58;;
48040;SDS011;33815;48.386;11.738;2022-09-03T08:23:40;6.50;;;2.75;;
48040;SDS011;33815;48.386;11.738;2022-09-03T08:26:07;2.70;;;2.50;;
48040;SDS011;33815;48.386;11.738;2022-09-03T08:28:33;3.78;;;2.30;;
48040;SDS011;33815;48.386;11.738;2022-09-03T08:31:12;2.55;;;2.35;;
48040;SDS011;33815;48.386;11.738;2022-09-03T08:33:40;4.28;;;2.80;;
48040;SDS011;33815;48.386;11.738;2022-09-03T08:36:11;4.18;;;2.40;;
48040;SDS011;33815;48.386;11.738;2022-09-03T08:38:40;2.97;;;2.67;;
48040;SDS011;33815;48.386;11.738;2022-09-03T08:41:14;2.65;;;2.45;;
48040;SDS011;33815;48.386;11.738;2022-09-03T08:43:53;2.97;;;2.60;;
48040;SDS011;33815;48.386;11.738;2022-09-03T08:46:51;3.15;;;2.42;;
48040;SDS011;33815;48.386;11.738;2022-09-03T08:49:26;3.75;;;2.50;;
48040;SDS011;33815;48.386;11.738;2022-09-03T08:51:59;3.67;;;2.10;;
48040;SDS011;33815;48.386;11.738;2022-09-03T08:54:29;3.22;;;2.22;;
48040;SDS011;33815;48.386;11.738;2022-09-03T08:56:57;3.47;;;2.35;;
48040;SDS011;33815;48.386;11.738;2022-09-03T08:59:25;2.47;;;2.00;;
48040;SDS011;33815;48.386;11.738;2022-09-03T09:01:55;2.88;;;2.40;;
48040;SDS011;33815;48.386;11.738;2022-09-03T09:07:12;5.13;;;2.58;;
48040;SDS011;33815;48.386;11.738;2022-09-03T09:09:46;2.38;;;2.10;;
48040;SDS011;33815;48.386;11.738;2022-09-03T09:15:26;3.15;;;2.50;;
48040;SDS011;33815;48.386;11.738;2022-09-03T09:18:09;2.03;;;1.83;;
48040;SDS011;33815;48.386;11.738;2022-09-03T09:23:13;2.38;;;1.98;;
48040;SDS011;33815;48.386;11.738;2022-09-03T09:25:47;2.92;;;1.83;;
48040;SDS011;33815;48.386;11.738;2022-09-03T09:30:49;2.43;;;1.40;;
48040;SDS011;33815;48.386;11.738;2022-09-03T09:33:18;2.92;;;1.80;;
48040;SDS011;33815;48.386;11.738;2022-09-03T09:35:44;1.90;;;1.80;;
48040;SDS011;33815;48.386;11.738;2022-09-03T09:38:10;2.00;;;1.88;;
48040;SDS011;33815;48.386;11.738;2022-09-03T09:40:37;2.03;;;1.83;;
48040;SDS011;33815;48.386;11.738;2022-09-03T09:43:10;2.42;;;1.83;;
48040;SDS011;33815;48.386;11.738;2022-09-03T09:45:40;1.92;;;1.80;;
48040;SDS011;33815;48.386;11.738;2022-09-03T09:53:46;2.40;;;2.13;;
48040;SDS011;33815;48.386;11.738;2022-09-03T09:56:22;2.40;;;1.95;;
48040;SDS011;33815;48.386;11.738;2022-09-03T09:58:49;2.92;;;2.20;;
48040;SDS011;33815;48.386;11.738;2022-09-03T10:01:25;2.20;;;2.00;;
48040;SDS011;33815;48.386;11.738;2022-09-03T10:03:55;2.03;;;1.83;;
48040;SDS011;33815;48.386;11.738;2022-09-03T10:06:25;2.70;;;2.15;;
48040;SDS011;33815;48.386;11.738;2022-09-03T10:12:13;4.57;;;2.20;;
48040;SDS011;33815;48.386;11.738;2022-09-03T10:14:48;3.10;;;2.38;;
48040;SDS011;33815;48.386;11.738;2022-09-03T10:17:54;4.28;;;3.03;;
48040;SDS011;33815;48.386;11.738;2022-09-03T10:20:43;3.63;;;1.95;;
48040;SDS011;33815;48.386;11.738;2022-09-03T10:23:17;3.70;;;2.00;;
48040;SDS011;33815;48.386;11.738;2022-09-03T10:26:03;1.92;;;1.83;;
48040;SDS011;33815;48.386;11.738;2022-09-03T10:28:34;1.85;;;1.75;;
48040;SDS011;33815;48.386;11.738;2022-09-03T10:31:10;2.85;;;1.67;;
48040;SDS011;33815;48.386;11.738;2022-09-03T10:36:24;1.85;;;1.50;;
48040;SDS011;33815;48.386;11.738;2022-09-03T10:39:02;2.50;;;1.80;;
48040;SDS011;33815;48.386;11.738;2022-09-03T10:41:35;1.80;;;1.58;;
48040;SDS011;33815;48.386;11.738;2022-09-03T10:44:28;3.45;;;1.75;;
48040;SDS011;33815;48.386;11.738;2022-09-03T10:47:08;1.73;;;1.63;;
48040;SDS011;33815;48.386;11.738;2022-09-03T10:50:13;2.40;;;1.80;;
48040;SDS011;33815;48.386;11.738;2022-09-03T10:55:48;1.77;;;1.50;;
48040;SDS011;33815;48.386;11.738;2022-09-03T11:07:16;1.25;;;1.20;;
48040;SDS011;33815;48.386;11.738;2022-09-03T11:09:45;1.60;;;1.50;;
48040;SDS011;33815;48.386;11.738;2022-09-03T11:12:23;2.60;;;1.45;;
48040;SDS011;33815;48.386;11.738;2022-09-03T11:14:56;2.03;;;1.77;;
48040;SDS011;33815;48.386;11.738;2022-09-03T11:17:28;1.17;;;1.10;;
48040;SDS011;33815;48.386;11.738;2022-09-03T11:20:17;1.50;;;1.40;;
48040;SDS011;33815;48.386;11.738;2022-09-03T11:22:44;1.30;;;1.13;;
48040;SDS011;33815;48.386;11.738;2022-09-03T11:25:12;1.60;;;1.50;;
48040;SDS011;33815;48.386;11.738;2022-09-03T11:30:07;1.20;;;1.00;;
48040;SDS011;33815;48.386;11.738;2022-09-03T11:35:25;1.40;;;1.30;;
48040;SDS011;33815;48.386;11.738;2022-09-03T11:37:59;1.02;;;1.02;;
48040;SDS011;33815;48.386;11.738;2022-09-03T11:40:35;1.60;;;1.50;;
48040;SDS011;33815;48.386;11.738;2022-09-03T11:43:44;1.48;;;1.23;;
48040;SDS011;33815;48.386;11.738;2022-09-03T11:48:52;2.08;;;1.75;;
48040;SDS011;33815;48.386;11.738;2022-09-03T11:51:33;2.20;;;1.55;;
48040;SDS011;33815;48.386;11.738;2022-09-03T11:54:03;1.42;;;1.30;;
48040;SDS011;33815;48.386;11.738;2022-09-03T11:56:49;1.33;;;1.23;;
48040;SDS011;33815;48.386;11.738;2022-09-03T11:59:16;2.28;;;1.00;;
48040;SDS011;33815;48.386;11.738;2022-09-03T12:04:16;2.60;;;1.38;;
48040;SDS011;33815;48.386;11.738;2022-09-03T12:06:54;5.82;;;1.40;;
48040;SDS011;33815;48.386;11.738;2022-09-03T12:15:29;1.35;;;0.95;;
48040;SDS011;33815;48.386;11.738;2022-09-03T12:18:12;1.48;;;1.17;;
48040;SDS011;33815;48.386;11.738;2022-09-03T12:20:43;1.00;;;1.00;;
48040;SDS011;33815;48.386;11.738;2022-09-03T12:23:10;1.02;;;1.02;;
48040;SDS011;33815;48.386;11.738;2022-09-03T12:25:44;1.65;;;1.52;;
48040;SDS011;33815;48.386;11.738;2022-09-03T12:28:11;1.40;;;1.23;;
48040;SDS011;33815;48.386;11.738;2022-09-03T12:30:43;0.98;;;0.88;;
48040;SDS011;33815;48.386;11.738;2022-09-03T12:33:10;1.15;;;1.08;;
48040;SDS011;33815;48.386;11.738;2022-09-03T12:35:41;1.58;;;1.10;;
48040;SDS011;33815;48.386;11.738;2022-09-03T12:38:06;3.17;;;1.48;;
48040;SDS011;33815;48.386;11.738;2022-09-03T12:40:31;2.30;;;1.00;;
48040;SDS011;33815;48.386;11.738;2022-09-03T12:43:12;0.97;;;0.97;;
48040;SDS011;33815;48.386;11.738;2022-09-03T12:45:46;1.20;;;1.10;;
48040;SDS011;33815;48.386;11.738;2022-09-03T12:48:13;1.02;;;0.98;;
48040;SDS011;33815;48.386;11.738;2022-09-03T12:50:42;1.75;;;1.60;;
48040;SDS011;33815;48.386;11.738;2022-09-03T12:53:09;1.15;;;1.05;;
48040;SDS011;33815;48.386;11.738;2022-09-03T12:55:45;1.40;;;1.30;;
48040;SDS011;33815;48.386;11.738;2022-09-03T13:01:02;1.40;;;1.30;;
48040;SDS011;33815;48.386;11.738;2022-09-03T13:03:47;1.00;;;1.00;;
48040;SDS011;33815;48.386;11.738;2022-09-03T13:06:22;0.73;;;0.73;;
48040;SDS011;33815;48.386;11.738;2022-09-03T13:08:52;1.25;;;1.20;;
48040;SDS011;33815;48.386;11.738;2022-09-03T13:11:23;1.05;;;0.95;;
48040;SDS011;33815;48.386;11.738;2022-09-03T13:27:08;1.17;;;1.03;;
48040;SDS011;33815;48.386;11.738;2022-09-03T13:30:15;0.90;;;0.90;;
48040;SDS011;33815;48.386;11.738;2022-09-03T13:32:53;1.33;;;1.10;;
48040;SDS011;33815;48.386;11.738;2022-09-03T13:38:26;1.55;;;1.33;;
48040;SDS011;33815;48.386;11.738;2022-09-03T13:44:15;1.60;;;1.50;;
48040;SDS011;33815;48.386;11.738;2022-09-03T13:46:45;1.33;;;1.20;;
48040;SDS011;33815;48.386;11.738;2022-09-03T13:49:34;0.52;;;0.52;;
48040;SDS011;33815;48.386;11.738;2022-09-03T13:55:30;1.00;;;1.00;;
48040;SDS011;33815;48.386;11.738;2022-09-03T13:58:10;0.60;;;0.60;;
48040;SDS011;33815;48.386;11.738;2022-09-03T14:01:08;0.77;;;0.77;;
48040;SDS011;33815;48.386;11.738;2022-09-03T14:09:13;1.83;;;1.00;;
48040;SDS011;33815;48.386;11.738;2022-09-03T14:17:13;1.17;;;0.98;;
48040;SDS011;33815;48.386;11.738;2022-09-03T14:25:28;0.93;;;0.93;;
48040;SDS011;33815;48.386;11.738;2022-09-03T14:27:54;0.90;;;0.80;;
48040;SDS011;33815;48.386;11.738;2022-09-03T14:33:23;1.75;;;0.70;;
48040;SDS011;33815;48.386;11.738;2022-09-03T14:38:47;0.90;;;0.90;;
48040;SDS011;33815;48.386;11.738;2022-09-03T14:41:33;0.93;;;0.93;;
48040;SDS011;33815;48.386;11.738;2022-09-03T14:44:31;1.67;;;0.93;;
48040;SDS011;33815;48.386;11.738;2022-09-03T14:49:52;1.30;;;1.20;;
48040;SDS011;33815;48.386;11.738;2022-09-03T14:52:41;1.42;;;1.33;;
48040;SDS011;33815;48.386;11.738;2022-09-03T14:55:51;1.65;;;1.42;;
48040;SDS011;33815;48.386;11.738;2022-09-03T14:58:28;1.55;;;1.10;;
48040;SDS011;33815;48.386;11.738;2022-09-03T15:01:12;1.50;;;1.20;;
48040;SDS011;33815;48.386;11.738;2022-09-03T15:03:54;2.92;;;1.27;;
48040;SDS011;33815;48.386;11.738;2022-09-03T15:06:27;0.70;;;0.70;;
48040;SDS011;33815;48.386;11.738;2022-09-03T15:09:21;1.40;;;1.02;;
48040;SDS011;33815;48.386;11.738;2022-09-03T15:12:07;3.10;;;2.33;;
48040;SDS011;33815;48.386;11.738;2022-09-03T15:14:45;1.88;;;1.35;;
48040;SDS011;33815;48.386;11.738;2022-09-03T15:30:35;3.53;;;1.50;;
48040;SDS011;33815;48.386;11.738;2022-09-03T15:36:18;2.85;;;2.42;;
48040;SDS011;33815;48.386;11.738;2022-09-03T15:39:05;5.75;;;1.55;;
48040;SDS011;33815;48.386;11.738;2022-09-03T15:44:13;2.78;;;1.70;;
48040;SDS011;33815;48.386;11.738;2022-09-03T15:49:58;5.07;;;1.90;;
48040;SDS011;33815;48.386;11.738;2022-09-03T15:58:00;2.38;;;1.45;;
48040;SDS011;33815;48.386;11.738;2022-09-03T16:07:01;1.55;;;1.45;;
48040;SDS011;33815;48.386;11.738;2022-09-03T16:09:39;3.60;;;1.80;;
48040;SDS011;33815;48.386;11.738;2022-09-03T16:16:06;1.75;;;1.65;;
48040;SDS011;33815;48.386;11.738;2022-09-03T16:18:38;2.65;;;2.03;;
48040;SDS011;33815;48.386;11.738;2022-09-03T16:24:15;2.10;;;1.88;;
48040;SDS011;33815;48.386;11.738;2022-09-03T16:26:57;3.22;;;1.75;;
48040;SDS011;33815;48.386;11.738;2022-09-03T16:29:31;1.77;;;1.60;;
48040;SDS011;33815;48.386;11.738;2022-09-03T16:42:46;1.75;;;1.50;;
48040;SDS011;33815;48.386;11.738;2022-09-03T17:08:14;5.25;;;1.45;;
48040;SDS011;33815;48.386;11.738;2022-09-03T17:10:53;1.27;;;1.17;;
48040;SDS011;33815;48.386;11.738;2022-09-03T17:13:45;1.35;;;1.20;;
48040;SDS011;33815;48.386;11.738;2022-09-03T17:16:38;1.85;;;1.25;;
48040;SDS011;33815;48.386;11.738;2022-09-03T17:22:19;1.15;;;1.10;;
48040;SDS011;33815;48.386;11.738;2022-09-03T17:24:56;2.17;;;1.80;;
48040;SDS011;33815;48.386;11.738;2022-09-03T17:27:35;0.98;;;0.98;;
48040;SDS011;33815;48.386;11.738;2022-09-03T17:33:16;1.70;;;1.60;;
48040;SDS011;33815;48.386;11.738;2022-09-03T17:36:02;1.17;;;1.17;;
48040;SDS011;33815;48.386;11.738;2022-09-03T17:41:30;1.63;;;1.52;;
48040;SDS011;33815;48.386;11.738;2022-09-03T17:49:51;1.67;;;1.50;;
48040;SDS011;33815;48.386;11.738;2022-09-03T17:55:11;1.92;;;1.20;;
48040;SDS011;33815;48.386;11.738;2022-09-03T17:57:42;1.73;;;1.60;;
48040;SDS011;33815;48.386;11.738;2022-09-03T18:00:20;1.50;;;1.40;;
48040;SDS011;33815;48.386;11.738;2022-09-03T18:02:55;2.92;;;1.35;;
48040;SDS011;33815;48.386;11.738;2022-09-03T18:05:45;2.33;;;1.73;;
48040;SDS011;33815;48.386;11.738;2022-09-03T18:08:19;3.38;;;1.33;;
48040;SDS011;33815;48.386;11.738;2022-09-03T18:16:13;1.52;;;1.42;;
48040;SDS011;33815;48.386;11.738;2022-09-03T18:18:49;1.60;;;1.50;;
48040;SDS011;33815;48.386;11.738;2022-09-03T18:21:20;2.25;;;1.55;;
48040;SDS011;33815;48.386;11.738;2022-09-03T18:27:28;2.15;;;1.90;;
48040;SDS011;33815;48.386;11.738;2022-09-03T18:30:19;1.40;;;1.30;;
48040;SDS011;33815;48.386;11.738;2022-09-03T18:33:03;1.55;;;1.42;;
48040;SDS011;33815;48.386;11.738;2022-09-03T18:35:47;1.58;;;1.30;;
48040;SDS011;33815;48.386;11.738;2022-09-03T18:38:35;2.85;;;1.50;;
48040;SDS011;33815;48.386;11.738;2022-09-03T18:41:25;1.45;;;1.33;;
48040;SDS011;33815;48.386;11.738;2022-09-03T18:47:36;2.00;;;1.48;;
48040;SDS011;33815;48.386;11.738;2022-09-03T18:50:44;2.17;;;1.50;;
48040;SDS011;33815;48.386;11.738;2022-09-03T18:54:01;1.38;;;1.27;;
48040;SDS011;33815;48.386;11.738;2022-09-03T18:56:49;3.13;;;1.60;;
48040;SDS011;33815;48.386;11.738;2022-09-03T19:02:44;1.70;;;1.60;;
48040;SDS011;33815;48.386;11.738;2022-09-03T19:06:04;2.42;;;1.52;;
48040;SDS011;33815;48.386;11.738;2022-09-03T19:09:08;2.25;;;1.63;;
48040;SDS011;33815;48.386;11.738;2022-09-03T19:15:07;1.20;;;1.20;;
48040;SDS011;33815;48.386;11.738;2022-09-03T19:24:04;7.03;;;5.88;;
48040;SDS011;33815;48.386;11.738;2022-09-03T19:26:55;3.92;;;3.53;;
48040;SDS011;33815;48.386;11.738;2022-09-03T19:32:52;2.80;;;1.88;;
48040;SDS011;33815;48.386;11.738;2022-09-03T19:36:03;3.17;;;1.40;;
48040;SDS011;33815;48.386;11.738;2022-09-03T19:42:14;3.00;;;2.60;;
48040;SDS011;33815;48.386;11.738;2022-09-03T19:45:36;2.78;;;2.58;;
48040;SDS011;33815;48.386;11.738;2022-09-03T19:51:56;2.17;;;2.00;;
48040;SDS011;33815;48.386;11.738;2022-09-03T19:54:43;2.40;;;2.20;;